createdAt,value
2022-09-17T00:00:19.608Z,2.73
2022-09-17T00:02:51.728Z,2.87
2022-09-17T00:05:18.255Z,2.37
2022-09-17T00:07:44.679Z,2.00
2022-09-17T00:10:11.121Z,2.50
2022-09-17T00:12:37.734Z,2.50
2022-09-17T00:15:04.357Z,2.63
2022-09-17T00:17:30.782Z,2.50
2022-09-17T00:19:57.374Z,2.30
2022-09-17T00:22:24.275Z,2.53
2022-09-17T00:24:50.744Z,2.67
2022-09-17T00:27:17.768Z,2.87
2022-09-17T00:29:44.844Z,3.43
2022-09-17T00:32:11.690Z,2.73
2022-09-17T00:34:38.728Z,2.50
2022-09-17T00:37:05.238Z,3.07
2022-09-17T00:39:31.776Z,2.50
2022-09-17T00:41:58.374Z,3.03
2022-09-17T00:44:44.698Z,2.80
2022-09-17T00:47:21.775Z,3.37
2022-09-17T00:49:51.076Z,2.70
2022-09-17T00:52:31.672Z,2.73
2022-09-17T00:55:03.862Z,3.00
2022-09-17T00:57:30.856Z,3.20
2022-09-17T00:59:57.881Z,2.63
2022-09-17T01:02:25.572Z,2.67
2022-09-17T01:04:52.027Z,2.53
2022-09-17T01:07:36.857Z,2.70
2022-09-17T01:10:08.062Z,3.00
2022-09-17T01:12:37.149Z,2.80
2022-09-17T01:15:28.307Z,2.83
2022-09-17T01:18:23.670Z,2.20
2022-09-17T01:21:05.423Z,3.10
2022-09-17T01:24:06.145Z,2.93
2022-09-17T01:26:47.504Z,3.40
2022-09-17T01:29:52.832Z,4.10
2022-09-17T01:32:26.733Z,2.83
2022-09-17T01:34:59.070Z,2.77
2022-09-17T01:37:39.816Z,3.07
2022-09-17T01:40:34.829Z,2.87
2022-09-17T01:43:13.485Z,4.03
2022-09-17T01:45:53.025Z,3.13
2022-09-17T01:48:33.988Z,3.00
2022-09-17T01:51:09.281Z,2.20
2022-09-17T01:54:00.044Z,2.40
2022-09-17T01:56:40.974Z,2.23
2022-09-17T01:59:12.714Z,2.53
2022-09-17T02:01:42.056Z,3.00
2022-09-17T02:04:12.993Z,3.80
2022-09-17T02:06:43.352Z,2.43
2022-09-17T02:09:32.893Z,3.00
2022-09-17T02:12:02.480Z,2.50
2022-09-17T02:14:34.032Z,2.53
2022-09-17T02:17:05.382Z,2.50
2022-09-17T02:19:35.321Z,2.80
2022-09-17T02:22:17.897Z,2.80
2022-09-17T02:25:12.762Z,3.07
2022-09-17T02:27:49.594Z,2.70
2022-09-17T02:30:16.218Z,2.77
2022-09-17T02:32:42.971Z,2.50
2022-09-17T02:35:11.097Z,2.53
2022-09-17T02:37:37.921Z,3.53
2022-09-17T02:40:05.562Z,2.57
2022-09-17T02:42:49.658Z,2.70
2022-09-17T02:45:22.435Z,2.90
2022-09-17T02:48:21.479Z,2.27
2022-09-17T02:51:22.398Z,2.10
2022-09-17T02:53:59.590Z,2.43
2022-09-17T02:56:45.947Z,2.80
2022-09-17T02:59:37.929Z,2.57
2022-09-17T03:02:18.045Z,2.57
2022-09-17T03:04:46.977Z,2.30
2022-09-17T03:07:14.095Z,2.70
2022-09-17T03:09:41.700Z,2.67
2022-09-17T03:12:08.373Z,2.60
2022-09-17T03:14:34.910Z,2.53
2022-09-17T03:17:01.507Z,2.53
2022-09-17T03:19:28.093Z,2.00
2022-09-17T03:21:54.836Z,2.63
2022-09-17T03:24:21.467Z,2.57
2022-09-17T03:26:49.575Z,2.20
2022-09-17T03:29:17.270Z,2.73
2022-09-17T03:31:43.772Z,2.27
2022-09-17T03:34:10.193Z,2.80
2022-09-17T03:36:36.595Z,2.80
2022-09-17T03:39:03.015Z,2.80
2022-09-17T03:41:29.499Z,2.20
2022-09-17T03:43:56.038Z,2.30
2022-09-17T03:46:22.692Z,3.30
2022-09-17T03:48:49.426Z,2.63
2022-09-17T03:51:15.960Z,2.80
2022-09-17T03:53:43.003Z,2.13
2022-09-17T03:56:09.438Z,2.50
2022-09-17T03:58:36.242Z,2.63
2022-09-17T04:01:04.252Z,2.93
2022-09-17T04:03:31.238Z,2.53
2022-09-17T04:05:57.788Z,2.63
2022-09-17T04:08:24.373Z,2.37
2022-09-17T04:10:51.984Z,2.60
2022-09-17T04:13:18.690Z,2.50
2022-09-17T04:15:46.236Z,2.60
2022-09-17T04:18:13.703Z,2.53
2022-09-17T04:20:40.105Z,2.33
2022-09-17T04:23:09.791Z,2.60
2022-09-17T04:25:36.175Z,2.83
2022-09-17T04:28:02.955Z,3.13
2022-09-17T04:30:29.536Z,2.23
2022-09-17T04:32:55.958Z,2.60
2022-09-17T04:35:22.420Z,2.93
2022-09-17T04:37:53.623Z,2.03
2022-09-17T04:40:20.328Z,2.23
2022-09-17T04:42:47.032Z,2.50
2022-09-17T04:45:13.508Z,2.17
2022-09-17T04:47:40.336Z,2.50
2022-09-17T04:50:07.275Z,2.27
2022-09-17T04:52:33.674Z,2.50
2022-09-17T04:55:00.053Z,2.77
2022-09-17T04:57:27.203Z,1.83
2022-09-17T04:59:53.839Z,2.37
2022-09-17T05:02:20.417Z,2.47
2022-09-17T05:04:46.922Z,2.30
2022-09-17T05:07:14.033Z,2.30
2022-09-17T05:09:40.571Z,2.93
2022-09-17T05:12:07.180Z,2.57
2022-09-17T05:14:33.598Z,2.70
2022-09-17T05:17:00.158Z,2.40
2022-09-17T05:19:26.558Z,2.53
2022-09-17T05:21:52.955Z,3.00
2022-09-17T05:24:19.382Z,2.57
2022-09-17T05:26:45.742Z,2.77
2022-09-17T05:29:12.173Z,2.43
2022-09-17T05:31:38.625Z,2.60
2022-09-17T05:34:05.313Z,2.47
2022-09-17T05:36:31.691Z,3.03
2022-09-17T05:38:58.114Z,2.87
2022-09-17T05:41:24.620Z,2.50
2022-09-17T05:43:51.238Z,2.90
2022-09-17T05:46:17.663Z,3.20
2022-09-17T05:48:44.174Z,3.07
2022-09-17T05:51:10.627Z,2.17
2022-09-17T05:53:37.868Z,2.60
2022-09-17T05:56:04.336Z,2.90
2022-09-17T05:58:31.942Z,2.70
2022-09-17T06:01:00.949Z,2.93
2022-09-17T06:03:27.415Z,2.90
2022-09-17T06:05:56.068Z,2.40
2022-09-17T06:08:23.206Z,3.20
2022-09-17T06:10:49.792Z,2.50
2022-09-17T06:13:17.924Z,2.70
2022-09-17T06:15:50.785Z,2.37
2022-09-17T06:18:17.239Z,2.50
2022-09-17T06:20:43.657Z,2.20
2022-09-17T06:23:15.251Z,2.23
2022-09-17T06:25:42.328Z,3.10
2022-09-17T06:28:08.909Z,2.27
2022-09-17T06:30:36.766Z,2.53
2022-09-17T06:33:03.397Z,2.17
2022-09-17T06:35:29.771Z,2.47
2022-09-17T06:37:56.215Z,3.23
2022-09-17T06:40:23.788Z,2.53
2022-09-17T06:42:50.242Z,2.57
2022-09-17T06:45:17.085Z,2.27
2022-09-17T06:47:43.572Z,2.40
2022-09-17T06:50:10.056Z,2.40
2022-09-17T06:52:36.507Z,2.70
2022-09-17T06:55:02.920Z,2.43
2022-09-17T06:57:29.758Z,3.20
2022-09-17T06:59:56.283Z,2.53
2022-09-17T07:02:22.789Z,3.17
2022-09-17T07:04:49.250Z,2.30
2022-09-17T07:07:15.649Z,2.27
2022-09-17T07:09:42.216Z,1.93
2022-09-17T07:12:09.191Z,2.20
2022-09-17T07:14:35.984Z,3.13
2022-09-17T07:17:03.146Z,2.70
2022-09-17T07:19:29.599Z,2.30
2022-09-17T07:21:55.979Z,2.73
2022-09-17T07:24:22.363Z,2.33
2022-09-17T07:26:50.015Z,2.10
2022-09-17T07:29:16.434Z,2.30
2022-09-17T07:31:43.158Z,2.73
2022-09-17T07:34:10.415Z,2.30
2022-09-17T07:36:36.805Z,2.30
2022-09-17T07:39:03.419Z,2.17
2022-09-17T07:41:29.845Z,2.90
2022-09-17T07:43:56.410Z,2.93
2022-09-17T07:46:22.856Z,2.83
2022-09-17T07:48:49.788Z,3.20
2022-09-17T07:51:24.386Z,3.60
2022-09-17T07:53:51.939Z,2.57
2022-09-17T07:56:18.383Z,2.83
2022-09-17T07:58:44.810Z,2.53
2022-09-17T08:01:12.811Z,2.73
2022-09-17T08:03:39.990Z,3.00
2022-09-17T08:06:11.630Z,2.53
2022-09-17T08:08:39.371Z,2.30
2022-09-17T08:11:16.382Z,2.70
2022-09-17T08:13:51.637Z,2.20
2022-09-17T08:16:19.391Z,2.77
2022-09-17T08:18:46.573Z,2.17
2022-09-17T08:21:18.238Z,1.83
2022-09-17T08:23:45.130Z,2.37
2022-09-17T08:26:15.188Z,2.10
2022-09-17T08:28:45.543Z,2.67
2022-09-17T08:31:12.176Z,2.00
2022-09-17T08:33:39.835Z,2.17
2022-09-17T08:36:08.010Z,1.90
2022-09-17T08:38:38.395Z,2.07
2022-09-17T08:41:14.484Z,1.60
2022-09-17T08:43:56.338Z,1.57
2022-09-17T08:46:24.545Z,1.83
2022-09-17T08:48:56.747Z,1.87
2022-09-17T08:51:41.756Z,1.97
2022-09-17T08:54:50.089Z,1.50
2022-09-17T08:58:05.106Z,1.53
2022-09-17T09:00:48.008Z,1.53
2022-09-17T09:03:23.113Z,1.60
2022-09-17T09:05:53.264Z,1.60
2022-09-17T09:08:30.478Z,1.60
2022-09-17T09:11:00.918Z,1.53
2022-09-17T09:13:29.693Z,1.77
2022-09-17T09:16:03.052Z,1.60
2022-09-17T09:18:31.080Z,1.60
2022-09-17T09:21:21.769Z,1.80
2022-09-17T09:23:58.688Z,2.00
2022-09-17T09:26:45.067Z,1.93
2022-09-17T09:29:29.913Z,1.90
2022-09-17T09:32:01.451Z,1.77
2022-09-17T09:34:29.192Z,2.00
2022-09-17T09:37:13.967Z,2.27
2022-09-17T09:39:45.886Z,1.97
2022-09-17T09:42:34.235Z,1.50
2022-09-17T09:45:05.691Z,2.40
2022-09-17T09:47:43.126Z,1.90
2022-09-17T09:50:34.647Z,1.70
2022-09-17T09:53:23.245Z,1.90
2022-09-17T09:56:04.985Z,1.53
2022-09-17T09:58:37.129Z,1.83
2022-09-17T10:01:12.136Z,2.60
2022-09-17T10:03:41.098Z,1.80
2022-09-17T10:06:10.047Z,2.00
2022-09-17T10:08:43.451Z,1.80
2022-09-17T10:11:13.370Z,2.33
2022-09-17T10:13:42.002Z,2.17
2022-09-17T10:16:25.609Z,2.17
2022-09-17T10:19:07.975Z,1.40
2022-09-17T10:21:40.153Z,1.57
2022-09-17T10:24:25.651Z,1.40
2022-09-17T10:26:53.347Z,1.50
2022-09-17T10:29:21.283Z,1.40
2022-09-17T10:31:52.107Z,1.43
2022-09-17T10:34:27.167Z,1.10
2022-09-17T10:36:56.118Z,1.20
2022-09-17T10:39:44.540Z,1.10
2022-09-17T10:42:11.255Z,1.33
2022-09-17T10:44:39.581Z,1.07
2022-09-17T10:47:22.771Z,1.60
2022-09-17T10:50:19.438Z,0.90
2022-09-17T10:52:51.180Z,1.40
2022-09-17T10:55:30.967Z,1.27
2022-09-17T10:58:04.031Z,1.40
2022-09-17T11:00:49.066Z,1.53
2022-09-17T11:03:39.141Z,1.60
2022-09-17T11:06:35.409Z,1.47
2022-09-17T11:09:37.113Z,1.90
2022-09-17T11:12:13.670Z,1.47
2022-09-17T11:15:03.735Z,1.03
2022-09-17T11:17:36.839Z,1.30
2022-09-17T11:20:04.248Z,1.27
2022-09-17T11:22:58.914Z,1.30
2022-09-17T11:25:43.330Z,2.07
2022-09-17T11:28:21.099Z,1.17
2022-09-17T11:31:25.169Z,1.40
2022-09-17T11:34:04.755Z,1.50
2022-09-17T11:36:42.549Z,1.70
2022-09-17T11:39:24.524Z,1.80
2022-09-17T11:41:52.485Z,1.30
2022-09-17T11:44:47.190Z,1.60
2022-09-17T11:47:18.707Z,1.40
2022-09-17T11:50:01.367Z,1.40
2022-09-17T11:52:32.643Z,1.33
2022-09-17T11:55:22.233Z,1.33
2022-09-17T11:57:52.948Z,2.10
2022-09-17T12:00:22.827Z,1.37
2022-09-17T12:02:54.112Z,1.20
2022-09-17T12:05:29.014Z,1.20
2022-09-17T12:08:00.773Z,1.30
2022-09-17T12:10:53.597Z,1.63
2022-09-17T12:13:34.405Z,1.37
2022-09-17T12:16:13.595Z,1.50
2022-09-17T12:18:43.648Z,1.40
2022-09-17T12:21:12.457Z,1.50
2022-09-17T12:24:02.141Z,1.67
2022-09-17T12:26:39.388Z,1.70
2022-09-17T12:29:08.966Z,1.40
2022-09-17T12:31:47.279Z,1.37
2022-09-17T12:34:27.460Z,1.87
2022-09-17T12:37:18.420Z,1.83
2022-09-17T12:40:26.963Z,2.80
2022-09-17T12:42:54.337Z,1.83
2022-09-17T12:45:47.456Z,2.30
2022-09-17T12:48:19.859Z,2.17
2022-09-17T12:51:02.492Z,2.63
2022-09-17T12:54:14.797Z,2.03
2022-09-17T12:57:09.706Z,2.23
2022-09-17T12:59:43.048Z,2.13
2022-09-17T13:02:20.446Z,2.17
2022-09-17T13:05:20.106Z,2.07
2022-09-17T13:08:08.312Z,2.20
2022-09-17T13:11:10.893Z,2.13
2022-09-17T13:13:49.371Z,2.07
2022-09-17T13:16:18.373Z,3.10
2022-09-17T13:19:18.842Z,2.80
2022-09-17T13:22:00.556Z,2.00
2022-09-17T13:24:31.093Z,2.43
2022-09-17T13:26:58.744Z,1.53
2022-09-17T13:29:43.646Z,2.30
2022-09-17T13:32:30.743Z,2.27
2022-09-17T13:34:58.724Z,1.80
2022-09-17T13:37:27.064Z,2.67
2022-09-17T13:39:54.082Z,2.50
2022-09-17T13:42:28.193Z,2.50
2022-09-17T13:45:16.461Z,2.30
2022-09-17T13:47:52.719Z,2.23
2022-09-17T13:50:28.371Z,2.67
2022-09-17T13:52:57.268Z,2.70
2022-09-17T13:55:42.609Z,2.47
2022-09-17T13:58:13.006Z,3.17
2022-09-17T14:00:53.110Z,2.03
2022-09-17T14:03:31.747Z,2.40
2022-09-17T14:06:19.026Z,1.77
2022-09-17T14:08:45.568Z,2.83
2022-09-17T14:11:28.331Z,2.00
2022-09-17T14:13:55.698Z,2.63
2022-09-17T14:16:28.459Z,2.17
2022-09-17T14:19:16.377Z,2.20
2022-09-17T14:21:44.676Z,2.80
2022-09-17T14:24:24.848Z,2.23
2022-09-17T14:27:09.966Z,2.67
2022-09-17T14:30:07.668Z,1.80
2022-09-17T14:32:44.551Z,2.10
2022-09-17T14:35:20.481Z,1.60
2022-09-17T14:37:51.943Z,1.80
2022-09-17T14:40:19.749Z,2.47
2022-09-17T14:42:49.783Z,2.27
2022-09-17T14:45:20.050Z,2.40
2022-09-17T14:47:47.249Z,2.13
2022-09-17T14:50:24.919Z,2.07
2022-09-17T14:52:53.078Z,2.30
2022-09-17T14:55:24.054Z,2.13
2022-09-17T14:57:58.881Z,2.27
2022-09-17T15:00:28.734Z,1.77
2022-09-17T15:02:59.422Z,2.30
2022-09-17T15:05:33.225Z,2.57
2022-09-17T15:08:17.737Z,2.07
2022-09-17T15:10:59.106Z,2.93
2022-09-17T15:13:30.141Z,2.80
2022-09-17T15:16:01.093Z,2.57
2022-09-17T15:18:36.393Z,2.33
2022-09-17T15:21:05.608Z,2.23
2022-09-17T15:23:34.194Z,1.90
2022-09-17T15:26:01.226Z,1.97
2022-09-17T15:28:35.522Z,2.60
2022-09-17T15:31:03.487Z,3.17
2022-09-17T15:33:31.789Z,2.10
2022-09-17T15:36:00.652Z,2.80
2022-09-17T15:38:28.966Z,2.57
2022-09-17T15:40:57.085Z,3.57
2022-09-17T15:43:30.744Z,3.17
2022-09-17T15:45:58.271Z,3.27
2022-09-17T15:48:27.787Z,2.67
2022-09-17T15:50:59.529Z,3.33
2022-09-17T15:53:28.073Z,2.30
2022-09-17T15:56:21.005Z,3.70
2022-09-17T15:58:47.714Z,2.77
2022-09-17T16:01:14.136Z,2.40
2022-09-17T16:03:40.726Z,2.40
2022-09-17T16:06:19.465Z,2.67
2022-09-17T16:08:51.330Z,2.27
2022-09-17T16:11:19.335Z,1.90
2022-09-17T16:13:47.173Z,2.33
2022-09-17T16:16:19.079Z,2.50
2022-09-17T16:18:45.960Z,2.93
2022-09-17T16:21:17.891Z,1.73
2022-09-17T16:23:44.733Z,1.70
2022-09-17T16:26:17.465Z,2.13
2022-09-17T16:28:46.652Z,1.93
2022-09-17T16:31:13.651Z,2.00
2022-09-17T16:33:40.772Z,1.80
2022-09-17T16:36:07.661Z,1.33
2022-09-17T16:38:34.379Z,1.50
2022-09-17T16:41:06.051Z,1.67
2022-09-17T16:43:33.867Z,2.07
2022-09-17T16:46:01.142Z,1.73
2022-09-17T16:48:27.727Z,2.50
2022-09-17T16:50:57.047Z,2.37
2022-09-17T16:53:23.505Z,2.30
2022-09-17T16:55:50.316Z,2.80
2022-09-17T16:58:17.016Z,2.87
2022-09-17T17:00:44.531Z,3.33
2022-09-17T17:03:15.150Z,2.40
2022-09-17T17:05:41.582Z,2.27
2022-09-17T17:08:09.056Z,2.53
2022-09-17T17:10:37.873Z,2.73
2022-09-17T17:13:04.836Z,2.23
2022-09-17T17:15:31.239Z,2.33
2022-09-17T17:17:58.233Z,2.03
2022-09-17T17:20:24.772Z,2.87
2022-09-17T17:22:52.119Z,2.43
2022-09-17T17:25:18.781Z,2.20
2022-09-17T17:27:45.787Z,2.37
2022-09-17T17:30:17.749Z,2.50
2022-09-17T17:32:48.356Z,3.00
2022-09-17T17:35:15.378Z,3.77
2022-09-17T17:37:42.066Z,3.57
2022-09-17T17:40:10.292Z,4.03
2022-09-17T17:42:39.404Z,4.30
2022-09-17T17:45:08.049Z,4.53
2022-09-17T17:47:34.682Z,3.33
2022-09-17T17:50:01.297Z,3.13
2022-09-17T17:52:28.012Z,3.73
2022-09-17T17:54:54.691Z,3.47
2022-09-17T17:57:21.074Z,3.37
2022-09-17T17:59:47.616Z,2.63
2022-09-17T18:02:14.627Z,2.97
2022-09-17T18:04:41.458Z,2.70
2022-09-17T18:07:08.243Z,3.03
2022-09-17T18:09:34.922Z,2.93
2022-09-17T18:12:01.500Z,2.60
2022-09-17T18:14:27.881Z,2.83
2022-09-17T18:16:54.412Z,3.00
2022-09-17T18:19:20.814Z,2.67
2022-09-17T18:21:47.197Z,2.57
2022-09-17T18:24:13.803Z,3.40
2022-09-17T18:26:40.333Z,3.00
2022-09-17T18:29:08.165Z,3.53
2022-09-17T18:31:36.157Z,3.17
2022-09-17T18:34:07.667Z,2.43
2022-09-17T18:36:35.613Z,2.27
2022-09-17T18:41:52.597Z,2.33
2022-09-17T18:44:21.542Z,3.03
2022-09-17T18:46:50.112Z,2.50
2022-09-17T18:49:16.710Z,2.70
2022-09-17T18:51:43.501Z,3.40
2022-09-17T18:54:10.834Z,3.40
2022-09-17T18:56:37.820Z,2.70
2022-09-17T18:59:08.099Z,3.27
2022-09-17T19:01:35.510Z,3.60
2022-09-17T19:04:02.398Z,3.40
2022-09-17T19:06:31.866Z,3.30
2022-09-17T19:09:02.345Z,3.00
2022-09-17T19:11:29.393Z,2.70
2022-09-17T19:13:57.402Z,3.53
2022-09-17T19:16:24.217Z,3.23
2022-09-17T19:18:50.800Z,3.67
2022-09-17T19:21:18.937Z,3.13
2022-09-17T19:23:47.235Z,3.10
2022-09-17T19:26:19.165Z,2.60
2022-09-17T19:28:45.912Z,2.97
2022-09-17T19:31:16.558Z,3.00
2022-09-17T19:33:43.893Z,2.43
2022-09-17T19:36:15.624Z,2.90
2022-09-17T19:38:42.476Z,2.63
2022-09-17T19:41:14.351Z,3.37
2022-09-17T19:43:40.772Z,3.57
2022-09-17T19:46:10.881Z,2.80
2022-09-17T19:48:37.644Z,3.10
2022-09-17T19:51:06.299Z,2.13
2022-09-17T19:53:32.963Z,2.67
2022-09-17T19:55:59.802Z,2.77
2022-09-17T19:58:26.192Z,2.70
2022-09-17T20:00:56.467Z,2.40
2022-09-17T20:03:22.997Z,2.30
2022-09-17T20:05:49.463Z,2.70
2022-09-17T20:08:16.262Z,2.40
2022-09-17T20:10:42.677Z,2.10
2022-09-17T20:13:09.128Z,3.70
2022-09-17T20:15:36.239Z,2.77
2022-09-17T20:18:03.171Z,2.47
2022-09-17T20:20:29.760Z,2.23
2022-09-17T20:22:56.200Z,2.50
2022-09-17T20:25:25.471Z,2.10
2022-09-17T20:27:53.104Z,2.30
2022-09-17T20:30:19.571Z,2.10
2022-09-17T20:32:45.993Z,2.17
2022-09-17T20:35:12.508Z,2.10
2022-09-17T20:40:25.348Z,2.10
2022-09-17T20:42:51.756Z,2.00
2022-09-17T20:45:18.340Z,2.10
2022-09-17T20:47:44.715Z,2.70
2022-09-17T20:50:11.229Z,2.27
2022-09-17T20:52:37.728Z,2.47
2022-09-17T20:55:04.785Z,2.20
2022-09-17T20:57:31.538Z,2.60
2022-09-17T21:00:00.796Z,2.83
2022-09-17T21:02:27.493Z,1.80
2022-09-17T21:04:54.121Z,2.37
2022-09-17T21:07:20.508Z,2.50
2022-09-17T21:09:46.945Z,2.10
2022-09-17T21:12:13.475Z,2.43
2022-09-17T21:14:39.914Z,2.00
2022-09-17T21:17:06.519Z,1.70
2022-09-17T21:19:32.981Z,2.13
2022-09-17T21:21:59.375Z,1.90
2022-09-17T21:24:25.877Z,2.63
2022-09-17T21:26:54.017Z,1.90
2022-09-17T21:29:20.861Z,1.87
2022-09-17T21:31:47.445Z,1.90
2022-09-17T21:34:14.125Z,2.00
2022-09-17T21:36:41.976Z,2.60
2022-09-17T21:39:16.662Z,2.63
2022-09-17T21:41:43.903Z,2.30
2022-09-17T21:44:11.607Z,2.07
2022-09-17T21:46:38.486Z,1.97
2022-09-17T21:49:08.131Z,2.03
2022-09-17T21:51:37.397Z,2.60
2022-09-17T21:54:09.312Z,2.30
2022-09-17T21:56:36.280Z,1.93
2022-09-17T21:59:05.258Z,2.07
2022-09-17T22:01:35.717Z,3.07
2022-09-17T22:04:02.268Z,2.13
2022-09-17T22:06:30.599Z,1.83
2022-09-17T22:08:58.154Z,2.17
2022-09-17T22:11:26.552Z,2.07
2022-09-17T22:14:04.677Z,1.90
2022-09-17T22:16:33.328Z,1.87
2022-09-17T22:18:59.870Z,1.57
2022-09-17T22:21:27.919Z,2.20
2022-09-17T22:23:57.669Z,1.70
2022-09-17T22:26:25.607Z,1.73
2022-09-17T22:28:52.383Z,1.83
2022-09-17T22:31:19.481Z,2.47
2022-09-17T22:33:47.833Z,2.03
2022-09-17T22:36:19.826Z,1.80
2022-09-17T22:38:48.236Z,2.33
2022-09-17T22:41:20.406Z,1.90
2022-09-17T22:43:47.032Z,2.33
2022-09-17T22:46:22.820Z,2.10
2022-09-17T22:48:49.487Z,1.67
2022-09-17T22:51:16.190Z,1.90
2022-09-17T22:53:43.266Z,1.57
2022-09-17T22:56:12.365Z,1.80
2022-09-17T22:58:39.247Z,1.53
2022-09-17T23:01:13.825Z,1.70
2022-09-17T23:03:40.825Z,2.77
2022-09-17T23:06:09.588Z,1.60
2022-09-17T23:08:36.459Z,1.70
2022-09-17T23:11:04.514Z,2.10
2022-09-17T23:13:31.346Z,1.80
2022-09-17T23:16:05.704Z,1.90
2022-09-17T23:18:32.717Z,1.93
2022-09-17T23:21:00.808Z,1.60
2022-09-17T23:23:27.704Z,1.60
2022-09-17T23:25:55.005Z,1.73
2022-09-17T23:28:22.473Z,1.70
2022-09-17T23:30:48.945Z,1.97
2022-09-17T23:33:15.433Z,1.83
2022-09-17T23:35:41.895Z,2.00
2022-09-17T23:38:08.358Z,2.23
2022-09-17T23:40:34.949Z,1.77
2022-09-17T23:43:01.397Z,2.00
2022-09-17T23:45:27.808Z,2.00
2022-09-17T23:47:54.391Z,1.70
2022-09-17T23:50:20.895Z,1.70
2022-09-17T23:52:47.291Z,1.43
2022-09-17T23:55:13.721Z,1.47
2022-09-17T23:57:40.102Z,2.00
